sensor_id;sensor_type;location;lat;lon;timestamp;pressure;altitude;pressure_sealevel;temperature;humidity
29385;BME280;16367;48.736;9.218;2022-10-16T00:00:50;-23647.06;;;15.18;100.00
29385;BME280;16367;48.736;9.218;2022-10-16T00:02:53;-23650.06;;;15.27;100.00
29385;BME280;16367;48.736;9.218;2022-10-16T00:04:55;-23647.84;;;15.20;100.00
29385;BME280;16367;48.736;9.218;2022-10-16T00:06:58;-23647.84;;;15.20;100.00
29385;BME280;16367;48.736;9.218;2022-10-16T00:09:01;-23651.31;;;15.31;100.00
29385;BME280;16367;48.736;9.218;2022-10-16T00:11:06;-23646.91;;;15.17;100.00
29385;BME280;16367;48.736;9.218;2022-10-16T00:13:11;-23647.53;;;15.19;100.00
29385;BME280;16367;48.736;9.218;2022-10-16T00:15:13;-23653.06;;;15.37;100.00
29385;BME280;16367;48.736;9.218;2022-10-16T00:17:16;-23647.84;;;15.20;100.00
29385;BME280;16367;48.736;9.218;2022-10-16T00:19:19;-23646.59;;;15.16;100.00
29385;BME280;16367;48.736;9.218;2022-10-16T00:21:23;-23645.78;;;15.14;100.00
29385;BME280;16367;48.736;9.218;2022-10-16T00:23:26;-23647.84;;;15.20;100.00
29385;BME280;16367;48.736;9.218;2022-10-16T00:25:29;-23648.00;;;15.21;100.00
29385;BME280;16367;48.736;9.218;2022-10-16T00:27:34;-23648.47;;;15.22;100.00
29385;BME280;16367;48.736;9.218;2022-10-16T00:29:38;-23637.44;;;14.87;100.00
29385;BME280;16367;48.736;9.218;2022-10-16T00:31:40;-23638.69;;;14.91;100.00
29385;BME280;16367;48.736;9.218;2022-10-16T00:33:43;-23636.81;;;14.85;100.00
29385;BME280;16367;48.736;9.218;2022-10-16T00:35:46;-23640.75;;;14.98;100.00
29385;BME280;16367;48.736;9.218;2022-10-16T00:37:49;-23639.34;;;14.93;100.00
29385;BME280;16367;48.736;9.218;2022-10-16T00:39:51;-23635.22;;;14.80;100.00
29385;BME280;16367;48.736;9.218;2022-10-16T00:41:54;-23639.66;;;14.94;100.00
29385;BME280;16367;48.736;9.218;2022-10-16T00:43:58;-23640.75;;;14.98;100.00
29385;BME280;16367;48.736;9.218;2022-10-16T00:46:05;-23636.97;;;14.85;100.00
29385;BME280;16367;48.736;9.218;2022-10-16T00:48:12;-23632.88;;;14.72;100.00
29385;BME280;16367;48.736;9.218;2022-10-16T00:50:20;-23629.38;;;14.61;100.00
29385;BME280;16367;48.736;9.218;2022-10-16T00:52:24;-23629.25;;;14.61;100.00
29385;BME280;16367;48.736;9.218;2022-10-16T00:54:30;-23629.25;;;14.61;100.00
29385;BME280;16367;48.736;9.218;2022-10-16T00:56:33;-23628.91;;;14.60;100.00
29385;BME280;16367;48.736;9.218;2022-10-16T00:58:36;-23627.66;;;14.56;100.00
29385;BME280;16367;48.736;9.218;2022-10-16T01:00:39;-23628.28;;;14.58;100.00
29385;BME280;16367;48.736;9.218;2022-10-16T01:02:43;-23632.38;;;14.71;100.00
29385;BME280;16367;48.736;9.218;2022-10-16T01:04:48;-23626.41;;;14.52;100.00
29385;BME280;16367;48.736;9.218;2022-10-16T01:06:54;-23626.06;;;14.51;100.00
29385;BME280;16367;48.736;9.218;2022-10-16T01:09:20;-23625.28;;;14.48;100.00
29385;BME280;16367;48.736;9.218;2022-10-16T01:11:30;-23622.28;;;14.39;100.00
29385;BME280;16367;48.736;9.218;2022-10-16T01:13:38;-23621.81;;;14.37;100.00
29385;BME280;16367;48.736;9.218;2022-10-16T01:15:47;-23620.72;;;14.34;100.00
29385;BME280;16367;48.736;9.218;2022-10-16T01:17:59;-23621.03;;;14.35;100.00
29385;BME280;16367;48.736;9.218;2022-10-16T01:20:10;-23624.03;;;14.44;100.00
29385;BME280;16367;48.736;9.218;2022-10-16T01:22:13;-23625.13;;;14.48;100.00
29385;BME280;16367;48.736;9.218;2022-10-16T01:24:27;-23624.97;;;14.47;100.00
29385;BME280;16367;48.736;9.218;2022-10-16T01:26:41;-23620.56;;;14.33;100.00
29385;BME280;16367;48.736;9.218;2022-10-16T01:28:51;-23618.97;;;14.28;100.00
29385;BME280;16367;48.736;9.218;2022-10-16T01:30:58;-23619.59;;;14.30;100.00
29385;BME280;16367;48.736;9.218;2022-10-16T01:33:08;-23619.44;;;14.30;100.00
29385;BME280;16367;48.736;9.218;2022-10-16T01:35:18;-23617.88;;;14.25;100.00
29385;BME280;16367;48.736;9.218;2022-10-16T01:37:32;-23617.88;;;14.25;100.00
29385;BME280;16367;48.736;9.218;2022-10-16T01:39:38;-23616.91;;;14.21;100.00
29385;BME280;16367;48.736;9.218;2022-10-16T01:41:44;-23617.06;;;14.22;100.00
29385;BME280;16367;48.736;9.218;2022-10-16T01:43:54;-23616.75;;;14.21;100.00
29385;BME280;16367;48.736;9.218;2022-10-16T01:46:00;-23623.88;;;14.44;100.00
29385;BME280;16367;48.736;9.218;2022-10-16T01:48:05;-23623.56;;;14.43;100.00
29385;BME280;16367;48.736;9.218;2022-10-16T01:50:12;-23628.59;;;14.59;100.00
29385;BME280;16367;48.736;9.218;2022-10-16T01:52:21;-23624.81;;;14.47;100.00
29385;BME280;16367;48.736;9.218;2022-10-16T01:54:27;-23627.97;;;14.57;100.00
29385;BME280;16367;48.736;9.218;2022-10-16T01:56:31;-23624.97;;;14.47;100.00
29385;BME280;16367;48.736;9.218;2022-10-16T01:58:38;-23634.59;;;14.78;100.00
29385;BME280;16367;48.736;9.218;2022-10-16T02:00:45;-23635.69;;;14.81;100.00
29385;BME280;16367;48.736;9.218;2022-10-16T02:02:51;-23632.22;;;14.70;100.00
29385;BME280;16367;48.736;9.218;2022-10-16T02:04:58;-23627.66;;;14.56;100.00
29385;BME280;16367;48.736;9.218;2022-10-16T02:07:04;-23629.56;;;14.62;100.00
29385;BME280;16367;48.736;9.218;2022-10-16T02:09:08;-23626.72;;;14.53;100.00
29385;BME280;16367;48.736;9.218;2022-10-16T02:11:11;-23624.81;;;14.47;100.00
29385;BME280;16367;48.736;9.218;2022-10-16T02:13:17;-23627.19;;;14.54;100.00
29385;BME280;16367;48.736;9.218;2022-10-16T02:15:22;-23630.50;;;14.65;100.00
29385;BME280;16367;48.736;9.218;2022-10-16T02:17:26;-23631.75;;;14.69;100.00
29385;BME280;16367;48.736;9.218;2022-10-16T02:19:29;-23627.50;;;14.55;100.00
29385;BME280;16367;48.736;9.218;2022-10-16T02:21:38;-23629.25;;;14.61;100.00
29385;BME280;16367;48.736;9.218;2022-10-16T02:23:48;-23631.59;;;14.68;100.00
29385;BME280;16367;48.736;9.218;2022-10-16T02:25:54;-23626.06;;;14.51;100.00
29385;BME280;16367;48.736;9.218;2022-10-16T02:28:02;-23626.72;;;14.53;100.00
29385;BME280;16367;48.736;9.218;2022-10-16T02:30:11;-23627.66;;;14.56;100.00
29385;BME280;16367;48.736;9.218;2022-10-16T02:32:16;-23628.75;;;14.59;100.00
29385;BME280;16367;48.736;9.218;2022-10-16T02:34:24;-23628.91;;;14.60;100.00
29385;BME280;16367;48.736;9.218;2022-10-16T02:36:28;-23626.41;;;14.52;100.00
29385;BME280;16367;48.736;9.218;2022-10-16T02:38:32;-23626.41;;;14.52;100.00
29385;BME280;16367;48.736;9.218;2022-10-16T02:40:35;-23631.75;;;14.69;100.00
29385;BME280;16367;48.736;9.218;2022-10-16T02:42:39;-23634.75;;;14.78;100.00
29385;BME280;16367;48.736;9.218;2022-10-16T02:44:42;-23627.81;;;14.56;100.00
29385;BME280;16367;48.736;9.218;2022-10-16T02:46:45;-23624.81;;;14.47;100.00
29385;BME280;16367;48.736;9.218;2022-10-16T02:48:47;-23626.06;;;14.51;100.00
29385;BME280;16367;48.736;9.218;2022-10-16T02:50:51;-23627.66;;;14.56;100.00
29385;BME280;16367;48.736;9.218;2022-10-16T02:52:54;-23626.72;;;14.53;100.00
29385;BME280;16367;48.736;9.218;2022-10-16T02:54:57;-23627.66;;;14.56;100.00
29385;BME280;16367;48.736;9.218;2022-10-16T02:56:59;-23627.34;;;14.55;100.00
29385;BME280;16367;48.736;9.218;2022-10-16T02:59:02;-23622.75;;;14.40;100.00
29385;BME280;16367;48.736;9.218;2022-10-16T03:01:05;-23621.50;;;14.36;100.00
29385;BME280;16367;48.736;9.218;2022-10-16T03:03:07;-23621.03;;;14.35;100.00
29385;BME280;16367;48.736;9.218;2022-10-16T03:05:10;-23618.97;;;14.28;100.00
29385;BME280;16367;48.736;9.218;2022-10-16T03:07:14;-23620.09;;;14.32;100.00
29385;BME280;16367;48.736;9.218;2022-10-16T03:09:17;-23619.91;;;14.31;100.00
29385;BME280;16367;48.736;9.218;2022-10-16T03:11:20;-23620.41;;;14.33;100.00
29385;BME280;16367;48.736;9.218;2022-10-16T03:13:22;-23618.81;;;14.28;100.00
29385;BME280;16367;48.736;9.218;2022-10-16T03:15:25;-23620.72;;;14.34;100.00
29385;BME280;16367;48.736;9.218;2022-10-16T03:17:29;-23621.34;;;14.36;100.00
29385;BME280;16367;48.736;9.218;2022-10-16T03:19:32;-23620.09;;;14.32;100.00
29385;BME280;16367;48.736;9.218;2022-10-16T03:21:34;-23619.28;;;14.29;100.00
29385;BME280;16367;48.736;9.218;2022-10-16T03:23:38;-23618.97;;;14.28;100.00
29385;BME280;16367;48.736;9.218;2022-10-16T03:25:41;-23617.88;;;14.25;100.00
29385;BME280;16367;48.736;9.218;2022-10-16T03:27:44;-23617.88;;;14.25;100.00
29385;BME280;16367;48.736;9.218;2022-10-16T03:29:47;-23618.19;;;14.26;100.00
29385;BME280;16367;48.736;9.218;2022-10-16T03:31:50;-23617.69;;;14.24;100.00
29385;BME280;16367;48.736;9.218;2022-10-16T03:33:52;-23621.03;;;14.35;100.00
29385;BME280;16367;48.736;9.218;2022-10-16T03:35:55;-23619.44;;;14.30;100.00
29385;BME280;16367;48.736;9.218;2022-10-16T03:37:57;-23620.25;;;14.32;100.00
29385;BME280;16367;48.736;9.218;2022-10-16T03:40:02;-23617.06;;;14.22;100.00
29385;BME280;16367;48.736;9.218;2022-10-16T03:42:05;-23617.22;;;14.23;100.00
29385;BME280;16367;48.736;9.218;2022-10-16T03:44:08;-23618.19;;;14.26;100.00
29385;BME280;16367;48.736;9.218;2022-10-16T03:46:10;-23616.59;;;14.20;100.00
29385;BME280;16367;48.736;9.218;2022-10-16T03:48:13;-23616.28;;;14.19;100.00
29385;BME280;16367;48.736;9.218;2022-10-16T03:50:16;-23618.03;;;14.25;100.00
29385;BME280;16367;48.736;9.218;2022-10-16T03:52:18;-23618.19;;;14.26;100.00
29385;BME280;16367;48.736;9.218;2022-10-16T03:54:21;-23616.59;;;14.20;100.00
29385;BME280;16367;48.736;9.218;2022-10-16T03:56:25;-23615.50;;;14.17;100.00
29385;BME280;16367;48.736;9.218;2022-10-16T03:58:28;-23617.53;;;14.23;100.00
29385;BME280;16367;48.736;9.218;2022-10-16T04:00:31;-23619.13;;;14.29;100.00
29385;BME280;16367;48.736;9.218;2022-10-16T04:02:33;-23618.81;;;14.28;100.00
29385;BME280;16367;48.736;9.218;2022-10-16T04:04:36;-23619.13;;;14.29;100.00
29385;BME280;16367;48.736;9.218;2022-10-16T04:06:39;-23619.13;;;14.29;100.00
29385;BME280;16367;48.736;9.218;2022-10-16T04:08:42;-23619.44;;;14.30;100.00
29385;BME280;16367;48.736;9.218;2022-10-16T04:10:45;-23618.50;;;14.27;100.00
29385;BME280;16367;48.736;9.218;2022-10-16T04:12:49;-23618.50;;;14.27;100.00
29385;BME280;16367;48.736;9.218;2022-10-16T04:14:52;-23617.38;;;14.23;100.00
29385;BME280;16367;48.736;9.218;2022-10-16T04:16:54;-23617.06;;;14.22;100.00
29385;BME280;16367;48.736;9.218;2022-10-16T04:18:57;-23617.22;;;14.23;100.00
29385;BME280;16367;48.736;9.218;2022-10-16T04:21:02;-23618.50;;;14.27;100.00
29385;BME280;16367;48.736;9.218;2022-10-16T04:23:05;-23618.50;;;14.27;100.00
29385;BME280;16367;48.736;9.218;2022-10-16T04:25:08;-23621.03;;;14.35;100.00
29385;BME280;16367;48.736;9.218;2022-10-16T04:27:12;-23619.44;;;14.30;100.00
29385;BME280;16367;48.736;9.218;2022-10-16T04:29:16;-23621.50;;;14.36;100.00
29385;BME280;16367;48.736;9.218;2022-10-16T04:31:19;-23620.72;;;14.34;100.00
29385;BME280;16367;48.736;9.218;2022-10-16T04:33:22;-23619.44;;;14.30;100.00
29385;BME280;16367;48.736;9.218;2022-10-16T04:35:24;-23618.19;;;14.26;100.00
29385;BME280;16367;48.736;9.218;2022-10-16T04:37:27;-23618.19;;;14.26;100.00
29385;BME280;16367;48.736;9.218;2022-10-16T04:39:30;-23620.09;;;14.32;100.00
29385;BME280;16367;48.736;9.218;2022-10-16T04:41:32;-23619.13;;;14.29;100.00
29385;BME280;16367;48.736;9.218;2022-10-16T04:43:35;-23620.41;;;14.33;100.00
29385;BME280;16367;48.736;9.218;2022-10-16T04:45:39;-23619.75;;;14.31;100.00
29385;BME280;16367;48.736;9.218;2022-10-16T04:47:41;-23621.97;;;14.38;100.00
29385;BME280;16367;48.736;9.218;2022-10-16T04:49:44;-23620.09;;;14.32;100.00
29385;BME280;16367;48.736;9.218;2022-10-16T04:51:47;-23619.44;;;14.30;100.00
29385;BME280;16367;48.736;9.218;2022-10-16T04:53:49;-23619.28;;;14.29;100.00
29385;BME280;16367;48.736;9.218;2022-10-16T04:55:52;-23618.19;;;14.26;100.00
29385;BME280;16367;48.736;9.218;2022-10-16T04:57:54;-23618.50;;;14.27;100.00
29385;BME280;16367;48.736;9.218;2022-10-16T04:59:57;-23617.53;;;14.23;100.00
29385;BME280;16367;48.736;9.218;2022-10-16T05:02:01;-23617.69;;;14.24;100.00
29385;BME280;16367;48.736;9.218;2022-10-16T05:04:04;-23618.34;;;14.26;100.00
29385;BME280;16367;48.736;9.218;2022-10-16T05:06:07;-23616.59;;;14.20;100.00
29385;BME280;16367;48.736;9.218;2022-10-16T05:08:09;-23617.53;;;14.23;100.00
29385;BME280;16367;48.736;9.218;2022-10-16T05:10:12;-23616.91;;;14.21;100.00
29385;BME280;16367;48.736;9.218;2022-10-16T05:12:15;-23615.97;;;14.18;100.00
29385;BME280;16367;48.736;9.218;2022-10-16T05:14:17;-23616.91;;;14.21;100.00
29385;BME280;16367;48.736;9.218;2022-10-16T05:16:20;-23614.72;;;14.14;100.00
29385;BME280;16367;48.736;9.218;2022-10-16T05:18:24;-23615.34;;;14.16;100.00
29385;BME280;16367;48.736;9.218;2022-10-16T05:20:27;-23616.59;;;14.20;100.00
29385;BME280;16367;48.736;9.218;2022-10-16T05:22:29;-23617.53;;;14.23;100.00
29385;BME280;16367;48.736;9.218;2022-10-16T05:24:32;-23617.53;;;14.23;100.00
29385;BME280;16367;48.736;9.218;2022-10-16T05:26:34;-23618.34;;;14.26;100.00
29385;BME280;16367;48.736;9.218;2022-10-16T05:28:37;-23617.53;;;14.23;100.00
29385;BME280;16367;48.736;9.218;2022-10-16T05:30:40;-23615.03;;;14.15;100.00
29385;BME280;16367;48.736;9.218;2022-10-16T05:32:46;-23614.06;;;14.12;100.00
29385;BME280;16367;48.736;9.218;2022-10-16T05:34:50;-23612.81;;;14.08;100.00
29385;BME280;16367;48.736;9.218;2022-10-16T05:36:53;-23613.28;;;14.10;100.00
29385;BME280;16367;48.736;9.218;2022-10-16T05:38:56;-23610.44;;;14.01;100.00
29385;BME280;16367;48.736;9.218;2022-10-16T05:40:58;-23614.38;;;14.13;100.00
29385;BME280;16367;48.736;9.218;2022-10-16T05:43:01;-23617.06;;;14.22;100.00
29385;BME280;16367;48.736;9.218;2022-10-16T05:45:05;-23613.13;;;14.09;100.00
29385;BME280;16367;48.736;9.218;2022-10-16T05:47:07;-23610.91;;;14.02;100.00
29385;BME280;16367;48.736;9.218;2022-10-16T05:49:12;-23608.69;;;13.95;100.00
29385;BME280;16367;48.736;9.218;2022-10-16T05:51:16;-23612.50;;;14.07;100.00
29385;BME280;16367;48.736;9.218;2022-10-16T05:53:18;-23616.44;;;14.20;100.00
29385;BME280;16367;48.736;9.218;2022-10-16T05:55:26;-23612.50;;;14.07;100.00
29385;BME280;16367;48.736;9.218;2022-10-16T05:57:29;-23611.53;;;14.04;100.00
29385;BME280;16367;48.736;9.218;2022-10-16T05:59:32;-23614.38;;;14.13;100.00
29385;BME280;16367;48.736;9.218;2022-10-16T06:01:34;-23614.22;;;14.13;100.00
29385;BME280;16367;48.736;9.218;2022-10-16T06:03:37;-23612.19;;;14.06;100.00
29385;BME280;16367;48.736;9.218;2022-10-16T06:05:40;-23615.03;;;14.15;100.00
29385;BME280;16367;48.736;9.218;2022-10-16T06:07:45;-23612.81;;;14.08;100.00
29385;BME280;16367;48.736;9.218;2022-10-16T06:09:48;-23613.75;;;14.11;100.00
29385;BME280;16367;48.736;9.218;2022-10-16T06:11:51;-23616.59;;;14.20;100.00
29385;BME280;16367;48.736;9.218;2022-10-16T06:13:55;-23615.81;;;14.18;100.00
29385;BME280;16367;48.736;9.218;2022-10-16T06:16:00;-23617.06;;;14.22;100.00
29385;BME280;16367;48.736;9.218;2022-10-16T06:18:02;-23616.91;;;14.21;100.00
29385;BME280;16367;48.736;9.218;2022-10-16T06:20:06;-23616.28;;;14.19;100.00
29385;BME280;16367;48.736;9.218;2022-10-16T06:22:08;-23618.19;;;14.26;100.00
29385;BME280;16367;48.736;9.218;2022-10-16T06:24:12;-23619.75;;;14.31;100.00
29385;BME280;16367;48.736;9.218;2022-10-16T06:26:17;-23624.81;;;14.47;100.00
29385;BME280;16367;48.736;9.218;2022-10-16T06:28:20;-23620.72;;;14.34;100.00
29385;BME280;16367;48.736;9.218;2022-10-16T06:30:22;-23620.25;;;14.32;100.00
29385;BME280;16367;48.736;9.218;2022-10-16T06:32:25;-23625.91;;;14.50;100.00
29385;BME280;16367;48.736;9.218;2022-10-16T06:34:27;-23622.91;;;14.41;100.00
29385;BME280;16367;48.736;9.218;2022-10-16T06:36:30;-23623.56;;;14.43;100.00
29385;BME280;16367;48.736;9.218;2022-10-16T06:38:33;-23625.75;;;14.50;100.00
29385;BME280;16367;48.736;9.218;2022-10-16T06:40:38;-23629.56;;;14.62;100.00
29385;BME280;16367;48.736;9.218;2022-10-16T06:42:41;-23633.03;;;14.73;100.00
29385;BME280;16367;48.736;9.218;2022-10-16T06:44:43;-23638.06;;;14.89;100.00
29385;BME280;16367;48.736;9.218;2022-10-16T06:46:46;-23640.28;;;14.96;100.00
29385;BME280;16367;48.736;9.218;2022-10-16T06:48:49;-23641.22;;;14.99;100.00
29385;BME280;16367;48.736;9.218;2022-10-16T06:50:56;-23640.75;;;14.98;100.00
29385;BME280;16367;48.736;9.218;2022-10-16T06:52:59;-23643.13;;;15.05;100.00
29385;BME280;16367;48.736;9.218;2022-10-16T06:55:02;-23645.78;;;15.14;100.00
29385;BME280;16367;48.736;9.218;2022-10-16T06:57:06;-23648.16;;;15.21;100.00
29385;BME280;16367;48.736;9.218;2022-10-16T06:59:09;-23646.44;;;15.16;100.00
29385;BME280;16367;48.736;9.218;2022-10-16T07:01:13;-23645.97;;;15.14;100.00
29385;BME280;16367;48.736;9.218;2022-10-16T07:03:16;-23647.22;;;15.18;100.00
29385;BME280;16367;48.736;9.218;2022-10-16T07:05:18;-23647.69;;;15.20;100.00
29385;BME280;16367;48.736;9.218;2022-10-16T07:07:21;-23649.25;;;15.25;100.00
29385;BME280;16367;48.736;9.218;2022-10-16T07:09:26;-23652.25;;;15.34;100.00
29385;BME280;16367;48.736;9.218;2022-10-16T07:11:28;-23653.84;;;15.39;100.00
29385;BME280;16367;48.736;9.218;2022-10-16T07:13:34;-23655.91;;;15.46;100.00
29385;BME280;16367;48.736;9.218;2022-10-16T07:15:37;-23656.06;;;15.46;100.00
29385;BME280;16367;48.736;9.218;2022-10-16T07:17:39;-23658.56;;;15.54;100.00
29385;BME280;16367;48.736;9.218;2022-10-16T07:19:42;-23661.09;;;15.62;100.00
29385;BME280;16367;48.736;9.218;2022-10-16T07:21:45;-23662.69;;;15.68;100.00
29385;BME280;16367;48.736;9.218;2022-10-16T07:23:49;-23658.88;;;15.55;100.00
29385;BME280;16367;48.736;9.218;2022-10-16T07:25:55;-23657.94;;;15.52;100.00
29385;BME280;16367;48.736;9.218;2022-10-16T07:27:58;-23657.94;;;15.52;100.00
29385;BME280;16367;48.736;9.218;2022-10-16T07:30:02;-23658.56;;;15.54;100.00
29385;BME280;16367;48.736;9.218;2022-10-16T07:32:09;-23660.47;;;15.60;100.00
29385;BME280;16367;48.736;9.218;2022-10-16T07:34:13;-23656.53;;;15.48;100.00
29385;BME280;16367;48.736;9.218;2022-10-16T07:36:17;-23657.63;;;15.51;100.00
29385;BME280;16367;48.736;9.218;2022-10-16T07:38:21;-23655.28;;;15.44;100.00
29385;BME280;16367;48.736;9.218;2022-10-16T07:40:24;-23654.16;;;15.40;100.00
29385;BME280;16367;48.736;9.218;2022-10-16T07:42:28;-23655.41;;;15.44;100.00
29385;BME280;16367;48.736;9.218;2022-10-16T07:44:31;-23655.75;;;15.45;100.00
29385;BME280;16367;48.736;9.218;2022-10-16T07:46:35;-23654.00;;;15.40;100.00
29385;BME280;16367;48.736;9.218;2022-10-16T07:48:37;-23655.59;;;15.45;100.00
29385;BME280;16367;48.736;9.218;2022-10-16T07:50:40;-23658.56;;;15.54;100.00
29385;BME280;16367;48.736;9.218;2022-10-16T07:52:43;-23662.22;;;15.66;100.00
29385;BME280;16367;48.736;9.218;2022-10-16T07:54:46;-23661.72;;;15.64;100.00
29385;BME280;16367;48.736;9.218;2022-10-16T07:56:48;-23663.63;;;15.71;100.00
29385;BME280;16367;48.736;9.218;2022-10-16T07:58:51;-23663.31;;;15.70;100.00
29385;BME280;16367;48.736;9.218;2022-10-16T08:00:54;-23666.78;;;15.81;100.00
29385;BME280;16367;48.736;9.218;2022-10-16T08:02:58;-23668.66;;;15.87;100.00
29385;BME280;16367;48.736;9.218;2022-10-16T08:05:01;-23663.94;;;15.72;100.00
29385;BME280;16367;48.736;9.218;2022-10-16T08:07:04;-23665.50;;;15.77;100.00
29385;BME280;16367;48.736;9.218;2022-10-16T08:09:08;-23663.00;;;15.68;100.00
29385;BME280;16367;48.736;9.218;2022-10-16T08:11:11;-23666.78;;;15.81;100.00
29385;BME280;16367;48.736;9.218;2022-10-16T08:13:15;-23670.72;;;15.93;100.00
29385;BME280;16367;48.736;9.218;2022-10-16T08:15:18;-23673.09;;;16.01;100.00
29385;BME280;16367;48.736;9.218;2022-10-16T08:17:21;-23677.66;;;16.15;100.00
29385;BME280;16367;48.736;9.218;2022-10-16T08:19:26;-23679.38;;;16.21;100.00
29385;BME280;16367;48.736;9.218;2022-10-16T08:21:28;-23681.91;;;16.29;100.00
29385;BME280;16367;48.736;9.218;2022-10-16T08:23:32;-23686.31;;;16.43;100.00
29385;BME280;16367;48.736;9.218;2022-10-16T08:25:35;-23690.25;;;16.56;100.00
29385;BME280;16367;48.736;9.218;2022-10-16T08:27:38;-23691.69;;;16.60;100.00
29385;BME280;16367;48.736;9.218;2022-10-16T08:29:41;-23694.03;;;16.68;100.00
29385;BME280;16367;48.736;9.218;2022-10-16T08:31:43;-23698.44;;;16.82;100.00
29385;BME280;16367;48.736;9.218;2022-10-16T08:33:46;-23698.91;;;16.83;100.00
29385;BME280;16367;48.736;9.218;2022-10-16T08:35:54;-23699.88;;;16.86;100.00
29385;BME280;16367;48.736;9.218;2022-10-16T08:37:56;-23704.75;;;17.02;100.00
29385;BME280;16367;48.736;9.218;2022-10-16T08:39:59;-23704.13;;;17.00;100.00
29385;BME280;16367;48.736;9.218;2022-10-16T08:42:12;-23700.81;;;16.89;100.00
29385;BME280;16367;48.736;9.218;2022-10-16T08:44:34;-23699.88;;;16.86;100.00
29385;BME280;16367;48.736;9.218;2022-10-16T08:46:47;-23704.59;;;17.01;100.00
29385;BME280;16367;48.736;9.218;2022-10-16T08:48:54;-23699.06;;;16.84;100.00
29385;BME280;16367;48.736;9.218;2022-10-16T08:51:01;-23699.38;;;16.85;100.00
29385;BME280;16367;48.736;9.218;2022-10-16T08:53:05;-23702.38;;;16.94;100.00
29385;BME280;16367;48.736;9.218;2022-10-16T08:55:19;-23700.81;;;16.89;100.00
29385;BME280;16367;48.736;9.218;2022-10-16T08:57:26;-23699.56;;;16.85;100.00
29385;BME280;16367;48.736;9.218;2022-10-16T08:59:28;-23698.91;;;16.83;100.00
29385;BME280;16367;48.736;9.218;2022-10-16T09:01:38;-23698.75;;;16.83;100.00
29385;BME280;16367;48.736;9.218;2022-10-16T09:03:59;-23702.06;;;16.93;100.00
29385;BME280;16367;48.736;9.218;2022-10-16T09:06:20;-23701.59;;;16.92;100.00
29385;BME280;16367;48.736;9.218;2022-10-16T09:08:30;-23711.19;;;17.23;100.00
29385;BME280;16367;48.736;9.218;2022-10-16T09:10:45;-23712.47;;;17.27;100.00
29385;BME280;16367;48.736;9.218;2022-10-16T09:12:56;-23718.91;;;17.47;100.00
29385;BME280;16367;48.736;9.218;2022-10-16T09:15:11;-23723.31;;;17.61;100.00
29385;BME280;16367;48.736;9.218;2022-10-16T09:17:29;-23730.41;;;17.84;100.00
29385;BME280;16367;48.736;9.218;2022-10-16T09:19:37;-23733.56;;;17.94;99.36
29385;BME280;16367;48.736;9.218;2022-10-16T09:21:44;-23738.56;;;18.10;97.55
29385;BME280;16367;48.736;9.218;2022-10-16T09:23:47;-23738.91;;;18.11;97.99
29385;BME280;16367;48.736;9.218;2022-10-16T09:25:49;-23751.94;;;18.53;96.69
29385;BME280;16367;48.736;9.218;2022-10-16T09:27:53;-23746.59;;;18.36;95.50
29385;BME280;16367;48.736;9.218;2022-10-16T09:29:56;-23735.13;;;17.99;96.27
29385;BME280;16367;48.736;9.218;2022-10-16T09:32:10;-23732.91;;;17.92;97.94
29385;BME280;16367;48.736;9.218;2022-10-16T09:34:23;-23739.53;;;18.13;98.52
29385;BME280;16367;48.736;9.218;2022-10-16T09:36:34;-23743.78;;;18.27;97.90
29385;BME280;16367;48.736;9.218;2022-10-16T09:38:40;-23743.44;;;18.26;96.02
29385;BME280;16367;48.736;9.218;2022-10-16T09:40:42;-23763.41;;;18.90;92.56
29385;BME280;16367;48.736;9.218;2022-10-16T09:42:45;-23772.22;;;19.18;90.28
29385;BME280;16367;48.736;9.218;2022-10-16T09:44:48;-23780.69;;;19.45;88.38
29385;BME280;16367;48.736;9.218;2022-10-16T09:47:01;-23778.19;;;19.37;89.11
29385;BME280;16367;48.736;9.218;2022-10-16T09:49:16;-23767.50;;;19.03;88.11
29385;BME280;16367;48.736;9.218;2022-10-16T09:51:24;-23770.50;;;19.12;88.47
29385;BME280;16367;48.736;9.218;2022-10-16T09:53:40;-23798.59;;;20.02;86.05
29385;BME280;16367;48.736;9.218;2022-10-16T09:55:50;-23799.38;;;20.05;83.62
29385;BME280;16367;48.736;9.218;2022-10-16T09:57:54;-23817.44;;;20.63;82.24
29385;BME280;16367;48.736;9.218;2022-10-16T09:59:58;-23816.47;;;20.60;81.53
29385;BME280;16367;48.736;9.218;2022-10-16T10:02:03;-23833.56;;;21.15;80.92
29385;BME280;16367;48.736;9.218;2022-10-16T10:04:07;-23827.16;;;20.94;81.45
29385;BME280;16367;48.736;9.218;2022-10-16T10:06:21;-23817.59;;;20.63;81.78
29385;BME280;16367;48.736;9.218;2022-10-16T10:08:24;-23810.84;;;20.42;83.79
29385;BME280;16367;48.736;9.218;2022-10-16T10:10:30;-23805.19;;;20.24;82.76
29385;BME280;16367;48.736;9.218;2022-10-16T10:12:33;-23808.66;;;20.35;82.02
29385;BME280;16367;48.736;9.218;2022-10-16T10:14:39;-23806.13;;;20.27;83.57
29385;BME280;16367;48.736;9.218;2022-10-16T10:16:44;-23804.41;;;20.21;84.64
29385;BME280;16367;48.736;9.218;2022-10-16T10:18:57;-23804.88;;;20.23;83.21
29385;BME280;16367;48.736;9.218;2022-10-16T10:21:02;-23808.97;;;20.36;83.97
29385;BME280;16367;48.736;9.218;2022-10-16T10:23:21;-23818.69;;;20.67;81.02
29385;BME280;16367;48.736;9.218;2022-10-16T10:28:17;-23833.44;;;21.14;75.16
29385;BME280;16367;48.736;9.218;2022-10-16T10:30:23;-23829.50;;;21.02;76.63
29385;BME280;16367;48.736;9.218;2022-10-16T10:32:33;-23826.22;;;20.91;76.84
29385;BME280;16367;48.736;9.218;2022-10-16T10:34:50;-23821.81;;;20.77;75.77
29385;BME280;16367;48.736;9.218;2022-10-16T10:37:02;-23817.44;;;20.63;75.32
29385;BME280;16367;48.736;9.218;2022-10-16T10:39:08;-23819.31;;;20.69;75.36
29385;BME280;16367;48.736;9.218;2022-10-16T10:41:51;-23834.84;;;21.19;72.89
29385;BME280;16367;48.736;9.218;2022-10-16T10:44:07;-23838.44;;;21.30;74.45
29385;BME280;16367;48.736;9.218;2022-10-16T10:46:19;-23830.44;;;21.05;74.08
29385;BME280;16367;48.736;9.218;2022-10-16T10:48:44;-23830.13;;;21.04;73.71